createdAt,value
2019-03-28T00:01:19.791Z,14.38
2019-03-28T00:03:48.011Z,15.85
2019-03-28T00:06:16.222Z,15.08
2019-03-28T00:08:44.467Z,14.90
2019-03-28T00:11:12.697Z,18.32
2019-03-28T00:13:40.907Z,17.55
2019-03-28T00:16:09.131Z,18.95
2019-03-28T00:18:37.381Z,20.02
2019-03-28T00:21:05.593Z,16.05
2019-03-28T00:23:38.390Z,19.60
2019-03-28T00:26:06.649Z,17.70
2019-03-28T00:28:34.850Z,17.62
2019-03-28T00:31:03.112Z,16.87
2019-03-28T00:33:31.393Z,18.45
2019-03-28T00:35:59.614Z,19.85
2019-03-28T00:38:27.812Z,17.20
2019-03-28T00:40:56.033Z,16.42
2019-03-28T00:43:24.265Z,18.30
2019-03-28T00:45:52.521Z,18.82
2019-03-28T00:48:20.728Z,17.57
2019-03-28T00:50:48.963Z,16.90
2019-03-28T00:53:17.187Z,15.72
2019-03-28T00:55:46.415Z,17.45
2019-03-28T00:58:14.621Z,20.52
2019-03-28T01:00:42.846Z,18.30
2019-03-28T01:03:11.227Z,17.62
2019-03-28T01:05:39.549Z,17.70
2019-03-28T01:08:07.764Z,17.35
2019-03-28T01:10:35.982Z,14.07
2019-03-28T01:13:04.188Z,19.23
2019-03-28T01:15:32.413Z,20.62
2019-03-28T01:18:00.631Z,19.45
2019-03-28T01:20:28.842Z,19.25
2019-03-28T01:22:57.057Z,17.40
2019-03-28T01:25:25.268Z,17.35
2019-03-28T01:27:53.505Z,19.12
2019-03-28T01:30:22.206Z,18.70
2019-03-28T01:32:50.605Z,18.10
2019-03-28T01:35:18.830Z,19.75
2019-03-28T01:37:47.083Z,17.45
2019-03-28T01:40:15.301Z,20.75
2019-03-28T01:42:43.517Z,18.48
2019-03-28T01:45:11.759Z,18.32
2019-03-28T01:47:39.976Z,20.35
2019-03-28T01:50:08.203Z,20.08
2019-03-28T01:52:36.398Z,22.52
2019-03-28T01:55:06.757Z,16.67
2019-03-28T01:57:34.969Z,18.92
2019-03-28T02:00:05.657Z,17.92
2019-03-28T02:02:33.900Z,18.48
2019-03-28T02:05:02.112Z,15.70
2019-03-28T02:07:30.317Z,17.70
2019-03-28T02:09:58.578Z,16.48
2019-03-28T02:12:26.786Z,18.50
2019-03-28T02:14:55.014Z,20.05
2019-03-28T02:17:23.232Z,19.40
2019-03-28T02:19:51.445Z,19.50
2019-03-28T02:22:19.669Z,20.50
2019-03-28T02:24:47.874Z,19.55
2019-03-28T02:27:23.958Z,18.35
2019-03-28T02:29:46.050Z,21.33
2019-03-28T02:32:14.274Z,19.50
2019-03-28T02:34:42.495Z,18.90
2019-03-28T02:37:10.703Z,19.75
2019-03-28T02:39:38.931Z,18.25
2019-03-28T02:42:07.183Z,21.30
2019-03-28T02:44:35.419Z,14.87
2019-03-28T02:47:03.631Z,19.98
2019-03-28T02:49:31.842Z,18.90
2019-03-28T02:52:00.066Z,17.50
2019-03-28T02:54:28.307Z,15.35
2019-03-28T02:56:56.529Z,16.42
2019-03-28T02:59:24.767Z,20.08
2019-03-28T03:01:53.053Z,19.20
2019-03-28T03:04:21.274Z,16.00
2019-03-28T03:06:49.485Z,17.23
2019-03-28T03:09:17.709Z,17.45
2019-03-28T03:11:45.921Z,18.50
2019-03-28T03:14:14.155Z,14.75
2019-03-28T03:16:42.365Z,17.55
2019-03-28T03:19:10.585Z,14.75
2019-03-28T03:21:38.816Z,18.42
2019-03-28T03:24:07.068Z,18.65
2019-03-28T03:26:35.278Z,14.93
2019-03-28T03:29:03.586Z,19.02
2019-03-28T03:31:31.803Z,18.23
2019-03-28T03:34:00.017Z,18.00
2019-03-28T03:36:28.229Z,19.70
2019-03-28T03:38:56.458Z,26.15
2019-03-28T03:41:24.699Z,33.70
2019-03-28T03:43:52.948Z,23.85
2019-03-28T03:46:21.148Z,18.45
2019-03-28T03:48:49.365Z,14.78
2019-03-28T03:51:17.578Z,17.23
2019-03-28T03:53:45.819Z,17.60
2019-03-28T03:56:14.069Z,15.85
2019-03-28T03:58:42.275Z,19.67
2019-03-28T04:01:10.520Z,18.07
2019-03-28T04:03:38.730Z,18.65
2019-03-28T04:06:06.943Z,19.95
2019-03-28T04:08:35.166Z,19.15
2019-03-28T04:11:03.384Z,20.10
2019-03-28T04:13:31.694Z,19.52
2019-03-28T04:15:59.878Z,19.95
2019-03-28T04:18:28.090Z,20.85
2019-03-28T04:20:56.306Z,19.70
2019-03-28T04:23:24.527Z,22.15
2019-03-28T04:25:52.755Z,19.70
2019-03-28T04:28:31.523Z,18.87
2019-03-28T04:30:50.918Z,19.62
2019-03-28T04:33:19.135Z,23.55
2019-03-28T04:35:47.964Z,18.85
2019-03-28T04:38:16.983Z,21.45
2019-03-28T04:40:45.200Z,22.75
2019-03-28T04:43:13.418Z,35.55
2019-03-28T04:45:41.671Z,27.65
2019-03-28T04:48:09.927Z,21.42
2019-03-28T04:50:38.171Z,20.82
2019-03-28T04:53:06.421Z,19.65
2019-03-28T04:55:34.830Z,20.85
2019-03-28T04:58:03.034Z,20.12
2019-03-28T05:00:31.257Z,19.85
2019-03-28T05:02:59.475Z,21.93
2019-03-28T05:05:27.730Z,20.27
2019-03-28T05:07:55.932Z,22.73
2019-03-28T05:10:24.183Z,21.15
2019-03-28T05:12:52.385Z,18.85
2019-03-28T05:15:20.661Z,21.25
2019-03-28T05:17:48.910Z,22.05
2019-03-28T05:20:18.155Z,21.33
2019-03-28T05:22:46.370Z,22.58
2019-03-28T05:25:14.598Z,24.07
2019-03-28T05:27:42.826Z,23.73
2019-03-28T05:30:11.061Z,28.30
2019-03-28T05:32:39.281Z,28.32
2019-03-28T05:35:07.514Z,30.37
2019-03-28T05:37:36.405Z,27.22
2019-03-28T05:40:05.969Z,28.73
2019-03-28T05:42:34.174Z,27.77
2019-03-28T05:45:02.402Z,25.60
2019-03-28T05:47:30.620Z,28.25
2019-03-28T05:49:58.875Z,25.62
2019-03-28T05:52:27.089Z,29.63
2019-03-28T05:54:55.559Z,26.15
2019-03-28T05:57:23.778Z,27.07
2019-03-28T05:59:52.003Z,29.70
2019-03-28T06:02:21.091Z,29.70
2019-03-28T06:04:49.313Z,28.15
2019-03-28T06:07:17.532Z,29.02
2019-03-28T06:09:45.791Z,28.95
2019-03-28T06:12:14.015Z,30.10
2019-03-28T06:14:42.237Z,29.95
2019-03-28T06:17:10.466Z,28.73
2019-03-28T06:19:38.680Z,29.25
2019-03-28T06:22:06.905Z,30.02
2019-03-28T06:24:35.157Z,32.63
2019-03-28T06:27:03.364Z,31.77
2019-03-28T06:29:31.580Z,30.68
2019-03-28T06:31:59.798Z,34.27
2019-03-28T06:34:28.013Z,30.82
2019-03-28T06:36:56.234Z,31.15
2019-03-28T06:39:24.446Z,31.17
2019-03-28T06:41:52.730Z,33.65
2019-03-28T06:44:20.979Z,36.80
2019-03-28T06:46:49.232Z,31.27
2019-03-28T06:49:17.476Z,33.80
2019-03-28T06:51:45.685Z,31.77
2019-03-28T06:54:13.935Z,30.23
2019-03-28T06:56:42.236Z,30.45
2019-03-28T06:59:11.704Z,30.95
2019-03-28T07:01:39.912Z,30.50
2019-03-28T07:04:08.158Z,30.77
2019-03-28T07:06:36.409Z,31.27
2019-03-28T07:09:07.391Z,27.02
2019-03-28T07:11:35.598Z,28.83
2019-03-28T07:14:03.813Z,27.35
2019-03-28T07:16:32.074Z,30.52
2019-03-28T07:19:00.286Z,29.20
2019-03-28T07:21:28.504Z,27.02
2019-03-28T07:23:56.729Z,28.52
2019-03-28T07:26:24.942Z,32.08
2019-03-28T07:28:54.423Z,30.65
2019-03-28T07:31:22.786Z,31.20
2019-03-28T07:33:51.034Z,33.88
2019-03-28T07:36:19.254Z,39.65
2019-03-28T07:38:47.791Z,36.35
2019-03-28T07:41:16.554Z,32.75
2019-03-28T07:43:44.996Z,36.60
2019-03-28T07:46:13.217Z,35.20
2019-03-28T07:48:41.438Z,38.28
2019-03-28T07:51:09.688Z,39.83
2019-03-28T07:53:37.907Z,34.67
2019-03-28T07:56:06.130Z,37.80
2019-03-28T07:58:35.288Z,32.42
2019-03-28T08:01:03.874Z,34.58
2019-03-28T08:03:32.499Z,35.20
2019-03-28T08:06:00.701Z,32.73
2019-03-28T08:08:38.288Z,35.38
2019-03-28T08:10:58.865Z,32.45
2019-03-28T08:13:27.126Z,31.30
2019-03-28T08:15:55.359Z,28.83
2019-03-28T08:18:23.877Z,31.02
2019-03-28T08:20:52.179Z,29.05
2019-03-28T08:23:20.403Z,25.02
2019-03-28T08:25:48.623Z,26.23
2019-03-28T08:28:16.874Z,27.02
2019-03-28T08:30:45.431Z,26.02
2019-03-28T08:33:13.990Z,24.02
2019-03-28T08:35:42.198Z,23.25
2019-03-28T08:38:10.583Z,21.25
2019-03-28T08:40:43.111Z,21.77
2019-03-28T08:43:11.711Z,22.02
2019-03-28T08:45:39.933Z,22.00
2019-03-28T08:48:08.165Z,20.75
2019-03-28T08:50:36.383Z,20.82
2019-03-28T08:53:04.621Z,19.67
2019-03-28T08:55:33.230Z,23.30
2019-03-28T08:58:01.441Z,19.92
2019-03-28T09:00:35.075Z,17.02
2019-03-28T09:02:59.653Z,18.17
2019-03-28T09:05:27.943Z,18.90
2019-03-28T09:07:56.150Z,18.98
2019-03-28T09:10:24.405Z,19.95
2019-03-28T09:12:52.647Z,17.95
2019-03-28T09:15:20.857Z,16.20
2019-03-28T09:17:49.065Z,17.05
2019-03-28T09:20:17.291Z,16.75
2019-03-28T09:22:45.546Z,19.85
2019-03-28T09:25:13.799Z,17.87
2019-03-28T09:27:42.051Z,20.12
2019-03-28T09:30:10.278Z,21.60
2019-03-28T09:32:38.487Z,17.45
2019-03-28T09:35:06.972Z,18.20
2019-03-28T09:37:35.202Z,19.57
2019-03-28T09:40:03.563Z,17.42
2019-03-28T09:42:31.808Z,18.48
2019-03-28T09:45:00.038Z,18.37
2019-03-28T09:47:28.279Z,17.00
2019-03-28T09:49:56.492Z,14.70
2019-03-28T09:52:24.743Z,16.65
2019-03-28T09:54:52.988Z,17.67
2019-03-28T09:57:21.236Z,14.78
2019-03-28T09:59:49.440Z,14.35
2019-03-28T10:02:17.692Z,14.15
2019-03-28T10:04:45.901Z,14.38
2019-03-28T10:07:14.151Z,14.70
2019-03-28T10:09:42.546Z,15.08
2019-03-28T10:12:10.932Z,16.32
2019-03-28T10:14:39.155Z,16.77
2019-03-28T10:17:07.365Z,17.62
2019-03-28T10:19:35.585Z,15.43
2019-03-28T10:22:03.806Z,14.83
2019-03-28T10:24:32.031Z,14.35
2019-03-28T10:27:00.247Z,17.23
2019-03-28T10:29:28.520Z,13.88
2019-03-28T10:31:56.746Z,14.25
2019-03-28T10:34:25.049Z,14.65
2019-03-28T10:36:53.351Z,12.80
2019-03-28T10:39:21.671Z,13.48
2019-03-28T10:41:50.007Z,14.75
2019-03-28T10:44:18.249Z,13.43
2019-03-28T10:46:46.518Z,13.55
2019-03-28T10:49:15.672Z,12.28
2019-03-28T10:51:44.202Z,12.63
2019-03-28T10:54:19.818Z,13.58
2019-03-28T10:56:51.659Z,12.20
2019-03-28T10:59:22.773Z,12.00
2019-03-28T11:01:49.932Z,8.00
2019-03-28T11:04:12.409Z,10.55
2019-03-28T11:06:40.699Z,9.55
2019-03-28T11:09:08.998Z,10.38
2019-03-28T11:11:37.322Z,9.08
2019-03-28T11:14:05.583Z,9.10
2019-03-28T11:16:33.832Z,11.30
2019-03-28T11:19:02.075Z,12.18
2019-03-28T11:21:32.890Z,9.30
2019-03-28T11:24:00.621Z,9.85
2019-03-28T11:26:28.946Z,11.50
2019-03-28T11:29:00.745Z,11.18
2019-03-28T11:31:27.349Z,11.55
2019-03-28T11:33:55.631Z,9.08
2019-03-28T11:36:23.887Z,9.63
2019-03-28T11:38:52.152Z,7.30
2019-03-28T11:41:20.428Z,9.20
2019-03-28T11:43:48.728Z,9.38
2019-03-28T11:46:16.984Z,9.18
2019-03-28T11:48:45.241Z,10.15
2019-03-28T11:51:13.508Z,10.80
2019-03-28T11:53:41.793Z,12.03
2019-03-28T11:56:10.056Z,10.93
2019-03-28T11:58:38.779Z,9.55
2019-03-28T12:01:07.243Z,11.12
2019-03-28T12:03:35.535Z,13.62
2019-03-28T12:06:03.795Z,10.32
2019-03-28T12:08:32.037Z,9.35
2019-03-28T12:11:00.335Z,12.40
2019-03-28T12:13:28.632Z,13.08
2019-03-28T12:15:56.890Z,14.03
2019-03-28T12:18:25.304Z,12.47
2019-03-28T12:20:53.712Z,10.50
2019-03-28T12:23:22.435Z,14.23
2019-03-28T12:25:50.936Z,16.27
2019-03-28T12:28:19.258Z,15.50
2019-03-28T12:30:47.511Z,14.23
2019-03-28T12:33:15.809Z,12.82
2019-03-28T12:35:44.134Z,13.80
2019-03-28T12:38:12.396Z,12.98
2019-03-28T12:40:40.653Z,10.58
2019-03-28T12:43:08.914Z,12.00
2019-03-28T12:45:37.156Z,15.50
2019-03-28T12:48:05.412Z,17.12
2019-03-28T12:50:33.712Z,16.77
2019-03-28T12:53:02.035Z,15.38
2019-03-28T12:55:30.290Z,17.17
2019-03-28T12:57:58.583Z,18.82
2019-03-28T13:00:36.420Z,17.60
2019-03-28T13:03:04.717Z,16.73
2019-03-28T13:05:34.763Z,17.15
2019-03-28T13:08:02.948Z,16.10
2019-03-28T13:10:31.207Z,18.20
2019-03-28T13:12:59.498Z,17.23
2019-03-28T13:15:27.846Z,14.73
2019-03-28T13:17:56.105Z,14.47
2019-03-28T13:20:24.359Z,14.23
2019-03-28T13:22:52.629Z,16.52
2019-03-28T13:25:20.893Z,15.88
2019-03-28T13:27:49.148Z,17.55
2019-03-28T13:30:17.478Z,15.55
2019-03-28T13:32:45.729Z,15.65
2019-03-28T13:35:13.992Z,17.32
2019-03-28T13:37:42.262Z,17.92
2019-03-28T13:40:10.625Z,17.80
2019-03-28T13:42:39.139Z,16.12
2019-03-28T13:45:09.867Z,15.85
2019-03-28T13:47:38.155Z,15.30
2019-03-28T13:50:08.501Z,17.30
2019-03-28T13:52:36.793Z,15.70
2019-03-28T13:55:08.057Z,17.80
2019-03-28T13:57:36.410Z,16.85
2019-03-28T14:00:06.285Z,15.48
2019-03-28T14:02:34.847Z,15.98
2019-03-28T14:05:03.250Z,17.05
2019-03-28T14:07:31.504Z,18.50
2019-03-28T14:09:59.883Z,19.20
2019-03-28T14:12:28.143Z,18.80
2019-03-28T14:14:56.437Z,17.12
2019-03-28T14:17:24.766Z,18.02
2019-03-28T14:19:53.017Z,15.88
2019-03-28T14:22:21.264Z,17.00
2019-03-28T14:24:49.532Z,16.60
2019-03-28T14:27:17.819Z,17.25
2019-03-28T14:29:46.146Z,19.52
2019-03-28T14:32:14.398Z,16.50
2019-03-28T14:34:42.683Z,19.27
2019-03-28T14:37:11.078Z,17.62
2019-03-28T14:39:39.330Z,15.55
2019-03-28T14:42:07.572Z,18.62
2019-03-28T14:44:35.845Z,19.48
2019-03-28T14:47:04.109Z,16.02
2019-03-28T14:49:32.470Z,13.50
2019-03-28T14:52:00.743Z,15.63
2019-03-28T14:54:29.003Z,16.05
2019-03-28T14:56:57.253Z,15.90
2019-03-28T14:59:32.386Z,15.28
2019-03-28T15:01:55.493Z,16.40
2019-03-28T15:04:23.785Z,16.62
2019-03-28T15:06:52.077Z,14.53
2019-03-28T15:09:20.337Z,15.23
2019-03-28T15:11:48.630Z,14.95
2019-03-28T15:14:16.888Z,13.65
2019-03-28T15:16:45.136Z,13.30
2019-03-28T15:19:13.424Z,13.88
2019-03-28T15:21:41.690Z,15.45
2019-03-28T15:24:09.932Z,16.97
2019-03-28T15:26:38.237Z,13.15
2019-03-28T15:29:06.553Z,14.65
2019-03-28T15:31:34.822Z,13.43
2019-03-28T15:34:03.115Z,13.88
2019-03-28T15:36:31.381Z,13.35
2019-03-28T15:38:59.654Z,17.57
2019-03-28T15:41:27.997Z,13.35
2019-03-28T15:43:56.253Z,13.40
2019-03-28T15:46:25.596Z,10.90
2019-03-28T15:48:54.050Z,14.05
2019-03-28T15:51:22.307Z,13.25
2019-03-28T15:53:50.606Z,12.47
2019-03-28T15:56:18.868Z,10.70
2019-03-28T15:58:47.161Z,10.28
2019-03-28T16:01:15.454Z,9.10
2019-03-28T16:03:52.892Z,10.90
2019-03-28T16:06:13.722Z,10.88
2019-03-28T16:08:41.974Z,11.85
2019-03-28T16:11:10.233Z,11.22
2019-03-28T16:13:38.519Z,11.75
2019-03-28T16:16:06.773Z,13.22
2019-03-28T16:18:35.062Z,10.88
2019-03-28T16:21:03.313Z,10.75
2019-03-28T16:23:31.570Z,10.10
2019-03-28T16:25:59.849Z,11.68
2019-03-28T16:28:28.403Z,9.85
2019-03-28T16:30:56.842Z,11.55
2019-03-28T16:33:25.132Z,10.58
2019-03-28T16:35:53.383Z,12.07
2019-03-28T16:38:21.671Z,10.78
2019-03-28T16:40:49.966Z,17.55
2019-03-28T16:43:18.228Z,10.40
2019-03-28T16:45:46.489Z,8.38
2019-03-28T16:48:14.790Z,10.88
2019-03-28T16:50:43.038Z,10.93
2019-03-28T16:53:11.294Z,19.30
2019-03-28T16:55:39.546Z,12.90
2019-03-28T16:58:07.813Z,9.73
2019-03-28T17:00:38.816Z,11.55
2019-03-28T17:03:07.080Z,10.70
2019-03-28T17:05:35.347Z,11.30
2019-03-28T17:08:03.684Z,12.43
2019-03-28T17:10:46.425Z,10.70
2019-03-28T17:13:15.287Z,12.10
2019-03-28T17:15:43.648Z,12.30
2019-03-28T17:18:11.901Z,11.48
2019-03-28T17:20:40.699Z,12.13
2019-03-28T17:23:09.192Z,11.75
2019-03-28T17:25:37.471Z,11.53
2019-03-28T17:28:05.735Z,14.68
2019-03-28T17:30:34.034Z,11.83
2019-03-28T17:33:02.358Z,11.68
2019-03-28T17:35:30.602Z,13.28
2019-03-28T17:37:58.856Z,14.87
2019-03-28T17:40:27.119Z,12.75
2019-03-28T17:42:55.381Z,12.82
2019-03-28T17:45:23.658Z,14.73
2019-03-28T17:47:51.916Z,14.93
2019-03-28T17:50:20.255Z,13.95
2019-03-28T17:52:48.516Z,14.30
2019-03-28T17:55:19.601Z,11.22
2019-03-28T17:57:46.783Z,15.95
2019-03-28T18:00:15.025Z,15.50
2019-03-28T18:02:43.319Z,13.80
2019-03-28T18:05:15.358Z,13.83
2019-03-28T18:07:41.605Z,14.53
2019-03-28T18:10:09.883Z,15.20
2019-03-28T18:12:38.138Z,13.55
2019-03-28T18:15:06.471Z,13.88
2019-03-28T18:17:34.747Z,14.73
2019-03-28T18:20:03.509Z,13.90
2019-03-28T18:22:31.777Z,13.00
2019-03-28T18:25:00.063Z,16.40
2019-03-28T18:27:28.330Z,12.63
2019-03-28T18:29:56.614Z,9.78
2019-03-28T18:32:24.908Z,13.00
2019-03-28T18:35:04.556Z,8.85
2019-03-28T18:37:23.167Z,9.75
2019-03-28T18:39:51.420Z,8.88
2019-03-28T18:42:19.707Z,10.40
2019-03-28T18:44:47.982Z,8.23
2019-03-28T18:47:16.295Z,9.18
2019-03-28T18:49:44.637Z,9.13
2019-03-28T18:52:13.051Z,10.35
2019-03-28T18:54:41.357Z,11.28
2019-03-28T18:57:09.660Z,8.90
2019-03-28T18:59:38.020Z,10.03
2019-03-28T19:02:06.285Z,12.10
2019-03-28T19:04:34.557Z,12.18
2019-03-28T19:07:02.823Z,10.18
2019-03-28T19:09:31.212Z,7.87
2019-03-28T19:11:59.433Z,7.47
2019-03-28T19:14:27.697Z,6.78
2019-03-28T19:16:55.958Z,7.53
2019-03-28T19:19:38.385Z,6.45
2019-03-28T19:21:55.810Z,6.83
2019-03-28T19:24:24.218Z,8.75
2019-03-28T19:26:52.946Z,5.08
2019-03-28T19:29:21.443Z,6.12
2019-03-28T19:31:50.013Z,7.62
2019-03-28T19:34:18.361Z,19.42
2019-03-28T19:36:46.845Z,10.68
2019-03-28T19:39:25.142Z,8.43
2019-03-28T19:41:53.457Z,7.47
2019-03-28T19:44:21.720Z,10.72
2019-03-28T19:46:49.982Z,7.90
2019-03-28T19:49:18.260Z,10.82
2019-03-28T19:51:47.796Z,8.65
2019-03-28T19:54:16.315Z,6.95
2019-03-28T19:56:44.627Z,9.10
2019-03-28T19:59:12.987Z,7.85
2019-03-28T20:01:41.240Z,7.85
2019-03-28T20:04:09.569Z,6.53
2019-03-28T20:06:37.815Z,8.23
2019-03-28T20:09:16.045Z,7.97
2019-03-28T20:11:37.513Z,7.12
2019-03-28T20:14:05.765Z,6.62
2019-03-28T20:16:34.012Z,6.55
2019-03-28T20:19:02.527Z,7.28
2019-03-28T20:21:30.924Z,9.78
2019-03-28T20:23:59.255Z,10.08
2019-03-28T20:26:27.529Z,5.78
2019-03-28T20:28:56.446Z,7.37
2019-03-28T20:31:24.747Z,6.78
2019-03-28T20:33:53.057Z,7.30
2019-03-28T20:36:36.914Z,5.78
2019-03-28T20:39:03.336Z,7.08
2019-03-28T20:41:21.346Z,6.62
2019-03-28T20:43:49.635Z,6.85
2019-03-28T20:46:20.577Z,6.72
2019-03-28T20:48:47.906Z,9.08
2019-03-28T20:51:16.191Z,9.55
2019-03-28T20:53:44.435Z,7.37
2019-03-28T20:56:12.689Z,8.98
2019-03-28T20:58:40.955Z,7.45
2019-03-28T21:01:09.219Z,7.22
2019-03-28T21:03:37.477Z,10.43
2019-03-28T21:06:15.148Z,8.13
2019-03-28T21:08:35.752Z,9.18
2019-03-28T21:11:04.095Z,8.70
2019-03-28T21:13:32.611Z,8.18
2019-03-28T21:16:00.871Z,7.33
2019-03-28T21:18:29.146Z,8.65
2019-03-28T21:20:57.396Z,6.03
2019-03-28T21:23:25.652Z,9.20
2019-03-28T21:25:53.852Z,6.08
2019-03-28T21:28:22.163Z,11.05
2019-03-28T21:30:50.385Z,10.72
2019-03-28T21:33:18.645Z,9.78
2019-03-28T21:35:46.871Z,9.15
2019-03-28T21:38:17.007Z,9.03
2019-03-28T21:40:45.450Z,8.78
2019-03-28T21:43:30.934Z,8.28
2019-03-28T21:45:59.021Z,11.00
2019-03-28T21:48:27.234Z,6.75
2019-03-28T21:50:55.450Z,9.10
2019-03-28T21:53:23.660Z,9.48
2019-03-28T21:55:55.335Z,7.25
2019-03-28T21:58:21.814Z,7.20
2019-03-28T22:00:50.041Z,8.30
2019-03-28T22:03:18.260Z,8.33
2019-03-28T22:05:46.515Z,8.78
2019-03-28T22:08:14.715Z,8.08
2019-03-28T22:10:43.083Z,11.45
2019-03-28T22:13:12.311Z,13.35
2019-03-28T22:15:40.817Z,13.80
2019-03-28T22:18:09.065Z,7.35
2019-03-28T22:20:37.290Z,8.48
2019-03-28T22:23:05.524Z,10.58
2019-03-28T22:25:33.726Z,12.53
2019-03-28T22:28:01.989Z,9.13
2019-03-28T22:30:30.203Z,10.72
2019-03-28T22:32:58.429Z,10.53
2019-03-28T22:35:26.671Z,9.28
2019-03-28T22:37:54.991Z,10.05
2019-03-28T22:40:23.226Z,10.10
2019-03-28T22:42:51.430Z,10.82
2019-03-28T22:45:19.676Z,9.40
2019-03-28T22:47:47.890Z,12.15
2019-03-28T22:50:16.204Z,12.28
2019-03-28T22:52:44.452Z,10.23
2019-03-28T22:55:12.664Z,10.82
2019-03-28T22:57:41.200Z,10.20
2019-03-28T23:00:11.627Z,9.00
2019-03-28T23:02:39.945Z,11.53
2019-03-28T23:05:09.220Z,10.65
2019-03-28T23:07:37.454Z,10.93
2019-03-28T23:10:07.610Z,9.93
2019-03-28T23:12:35.840Z,12.82
2019-03-28T23:15:08.192Z,11.68
2019-03-28T23:17:36.463Z,13.00
2019-03-28T23:20:07.431Z,10.63
2019-03-28T23:22:35.696Z,9.28
2019-03-28T23:25:04.951Z,10.55
2019-03-28T23:27:33.219Z,10.70
2019-03-28T23:30:02.886Z,10.70
2019-03-28T23:32:31.294Z,10.68
2019-03-28T23:34:59.539Z,10.75
2019-03-28T23:37:27.760Z,10.13
2019-03-28T23:39:55.996Z,11.68
2019-03-28T23:42:24.213Z,9.40
2019-03-28T23:44:53.171Z,11.33
2019-03-28T23:47:22.072Z,11.33
2019-03-28T23:49:50.283Z,12.05
2019-03-28T23:52:18.498Z,13.25
2019-03-28T23:54:47.719Z,10.63
2019-03-28T23:57:15.935Z,12.75
2019-03-28T23:59:44.151Z,12.63
